sensor_id;sensor_type;location;lat;lon;timestamp;pressure;altitude;pressure_sealevel;temperature;humidity
43745;BME280;29359;53.048;8.732;2023-04-04T00:01:31;103294.25;;;1.37;78.57
43745;BME280;29359;53.048;8.732;2023-04-04T00:03:33;103286.31;;;1.34;79.02
43745;BME280;29359;53.048;8.732;2023-04-04T00:05:34;103289.66;;;1.31;78.44
43745;BME280;29359;53.048;8.732;2023-04-04T00:07:36;103299.25;;;1.32;79.03
43745;BME280;29359;53.048;8.732;2023-04-04T00:09:38;103295.56;;;1.29;79.13
43745;BME280;29359;53.048;8.732;2023-04-04T00:11:39;103291.91;;;1.25;78.85
43745;BME280;29359;53.048;8.732;2023-04-04T00:13:42;103288.34;;;1.23;78.33
43745;BME280;29359;53.048;8.732;2023-04-04T00:15:43;103289.16;;;1.22;78.25
43745;BME280;29359;53.048;8.732;2023-04-04T00:17:45;103283.00;;;1.20;78.30
43745;BME280;29359;53.048;8.732;2023-04-04T00:19:46;103284.63;;;1.18;78.21
43745;BME280;29359;53.048;8.732;2023-04-04T00:21:48;103281.88;;;1.15;78.59
43745;BME280;29359;53.048;8.732;2023-04-04T00:23:50;103285.22;;;1.12;78.73
43745;BME280;29359;53.048;8.732;2023-04-04T00:25:54;103275.56;;;1.10;78.07
43745;BME280;29359;53.048;8.732;2023-04-04T00:27:56;103273.63;;;1.06;78.23
43745;BME280;29359;53.048;8.732;2023-04-04T00:30:01;103278.69;;;1.03;78.86
43745;BME280;29359;53.048;8.732;2023-04-04T00:32:02;103269.91;;;1.01;78.53
43745;BME280;29359;53.048;8.732;2023-04-04T00:34:04;103271.47;;;0.97;78.47
43745;BME280;29359;53.048;8.732;2023-04-04T00:36:06;103267.81;;;0.93;78.42
43745;BME280;29359;53.048;8.732;2023-04-04T00:38:08;103266.78;;;0.90;78.90
43745;BME280;29359;53.048;8.732;2023-04-04T00:40:09;103264.91;;;0.87;78.61
43745;BME280;29359;53.048;8.732;2023-04-04T00:42:11;103261.16;;;0.82;78.77
43745;BME280;29359;53.048;8.732;2023-04-04T00:44:13;103260.94;;;0.78;79.10
43745;BME280;29359;53.048;8.732;2023-04-04T00:46:14;103260.69;;;0.73;79.06
43745;BME280;29359;53.048;8.732;2023-04-04T00:48:19;103263.81;;;0.66;78.83
43745;BME280;29359;53.048;8.732;2023-04-04T00:50:21;103261.94;;;0.63;78.73
43745;BME280;29359;53.048;8.732;2023-04-04T00:52:22;103254.72;;;0.58;79.03
43745;BME280;29359;53.048;8.732;2023-04-04T00:54:24;103258.81;;;0.53;78.45
43745;BME280;29359;53.048;8.732;2023-04-04T00:56:25;103252.63;;;0.51;78.54
43745;BME280;29359;53.048;8.732;2023-04-04T00:58:28;103257.75;;;0.49;78.59
43745;BME280;29359;53.048;8.732;2023-04-04T01:00:33;103248.91;;;0.46;78.46
43745;BME280;29359;53.048;8.732;2023-04-04T01:02:35;103252.13;;;0.42;78.95
43745;BME280;29359;53.048;8.732;2023-04-04T01:04:37;103252.88;;;0.39;78.92
43745;BME280;29359;53.048;8.732;2023-04-04T01:06:39;103249.28;;;0.37;79.00
43745;BME280;29359;53.048;8.732;2023-04-04T01:08:41;103241.19;;;0.31;78.59
43745;BME280;29359;53.048;8.732;2023-04-04T01:10:43;103243.69;;;0.29;79.31
43745;BME280;29359;53.048;8.732;2023-04-04T01:12:45;103241.91;;;0.28;79.12
43745;BME280;29359;53.048;8.732;2023-04-04T01:14:47;103243.47;;;0.25;79.05
43745;BME280;29359;53.048;8.732;2023-04-04T01:16:49;103233.00;;;0.23;78.90
43745;BME280;29359;53.048;8.732;2023-04-04T01:18:52;103224.16;;;0.20;79.20
43745;BME280;29359;53.048;8.732;2023-04-04T01:21:06;103229.25;;;0.18;79.27
43745;BME280;29359;53.048;8.732;2023-04-04T01:23:10;103230.88;;;0.16;79.05
43745;BME280;29359;53.048;8.732;2023-04-04T01:25:13;103231.69;;;0.15;79.11
43745;BME280;29359;53.048;8.732;2023-04-04T01:27:15;103234.38;;;0.17;79.41
43745;BME280;29359;53.048;8.732;2023-04-04T01:29:16;103228.22;;;0.15;79.55
43745;BME280;29359;53.048;8.732;2023-04-04T01:31:25;103226.50;;;0.15;79.30
43745;BME280;29359;53.048;8.732;2023-04-04T01:33:30;103229.09;;;0.15;78.83
43745;BME280;29359;53.048;8.732;2023-04-04T01:35:43;103232.59;;;0.16;78.87
43745;BME280;29359;53.048;8.732;2023-04-04T01:37:49;103233.41;;;0.15;79.02
43745;BME280;29359;53.048;8.732;2023-04-04T01:39:55;103227.31;;;0.14;78.72
43745;BME280;29359;53.048;8.732;2023-04-04T01:42:00;103228.13;;;0.13;78.35
43745;BME280;29359;53.048;8.732;2023-04-04T01:44:03;103230.72;;;0.13;78.51
43745;BME280;29359;53.048;8.732;2023-04-04T01:46:05;103234.13;;;0.12;78.69
43745;BME280;29359;53.048;8.732;2023-04-04T01:48:07;103233.25;;;0.12;78.31
43745;BME280;29359;53.048;8.732;2023-04-04T01:50:10;103226.19;;;0.09;78.12
43745;BME280;29359;53.048;8.732;2023-04-04T01:52:12;103225.22;;;0.07;78.52
43745;BME280;29359;53.048;8.732;2023-04-04T01:54:14;103220.75;;;0.05;78.43
43745;BME280;29359;53.048;8.732;2023-04-04T01:56:15;103216.28;;;0.02;78.31
43745;BME280;29359;53.048;8.732;2023-04-04T01:58:17;103215.41;;;0.02;78.51
43745;BME280;29359;53.048;8.732;2023-04-04T02:00:18;103212.72;;;0.00;77.93
43745;BME280;29359;53.048;8.732;2023-04-04T02:02:20;103206.59;;;-0.01;77.67
43745;BME280;29359;53.048;8.732;2023-04-04T02:04:21;103209.13;;;-0.02;77.60
43745;BME280;29359;53.048;8.732;2023-04-04T02:06:23;103204.66;;;-0.05;77.74
43745;BME280;29359;53.048;8.732;2023-04-04T02:08:25;103207.16;;;-0.06;78.16
43745;BME280;29359;53.048;8.732;2023-04-04T02:10:26;103207.09;;;-0.08;77.86
43745;BME280;29359;53.048;8.732;2023-04-04T02:12:28;103198.41;;;-0.08;77.83
43745;BME280;29359;53.048;8.732;2023-04-04T02:14:29;103196.63;;;-0.09;77.28
43745;BME280;29359;53.048;8.732;2023-04-04T02:16:30;103199.22;;;-0.09;78.04
43745;BME280;29359;53.048;8.732;2023-04-04T02:18:32;103204.34;;;-0.11;77.78
43745;BME280;29359;53.048;8.732;2023-04-04T02:20:34;103204.34;;;-0.11;77.51
43745;BME280;29359;53.048;8.732;2023-04-04T02:22:36;103202.47;;;-0.13;77.21
43745;BME280;29359;53.048;8.732;2023-04-04T02:24:37;103198.97;;;-0.14;77.62
43745;BME280;29359;53.048;8.732;2023-04-04T02:26:39;103204.91;;;-0.16;77.55
43745;BME280;29359;53.048;8.732;2023-04-04T02:28:40;103202.16;;;-0.19;77.59
43745;BME280;29359;53.048;8.732;2023-04-04T02:30:42;103208.16;;;-0.20;77.44
43745;BME280;29359;53.048;8.732;2023-04-04T02:32:44;103209.84;;;-0.21;77.04
43745;BME280;29359;53.048;8.732;2023-04-04T02:34:45;103202.78;;;-0.23;77.57
43745;BME280;29359;53.048;8.732;2023-04-04T02:36:47;103201.91;;;-0.24;77.29
43745;BME280;29359;53.048;8.732;2023-04-04T02:38:48;103202.72;;;-0.25;77.34
43745;BME280;29359;53.048;8.732;2023-04-04T02:40:50;103200.84;;;-0.27;77.25
43745;BME280;29359;53.048;8.732;2023-04-04T02:42:51;103203.34;;;-0.29;77.39
43745;BME280;29359;53.048;8.732;2023-04-04T02:44:53;103194.59;;;-0.31;77.05
43745;BME280;29359;53.048;8.732;2023-04-04T02:46:55;103186.66;;;-0.34;77.06
43745;BME280;29359;53.048;8.732;2023-04-04T02:48:57;103201.25;;;-0.36;76.92
43745;BME280;29359;53.048;8.732;2023-04-04T02:50:59;103194.09;;;-0.40;77.43
43745;BME280;29359;53.048;8.732;2023-04-04T02:53:01;103193.00;;;-0.44;77.22
43745;BME280;29359;53.048;8.732;2023-04-04T02:55:04;103198.03;;;-0.47;77.18
43745;BME280;29359;53.048;8.732;2023-04-04T02:57:05;103195.38;;;-0.48;77.33
43745;BME280;29359;53.048;8.732;2023-04-04T02:59:07;103195.38;;;-0.48;77.60
43745;BME280;29359;53.048;8.732;2023-04-04T03:01:09;103195.19;;;-0.51;77.14
43745;BME280;29359;53.048;8.732;2023-04-04T03:03:10;103189.13;;;-0.52;77.32
43745;BME280;29359;53.048;8.732;2023-04-04T03:05:12;103188.13;;;-0.54;77.21
43745;BME280;29359;53.048;8.732;2023-04-04T03:07:14;103185.38;;;-0.57;77.37
43745;BME280;29359;53.048;8.732;2023-04-04T03:09:15;103187.06;;;-0.57;77.55
43745;BME280;29359;53.048;8.732;2023-04-04T03:11:18;103183.59;;;-0.58;77.12
43745;BME280;29359;53.048;8.732;2023-04-04T03:13:21;103173.94;;;-0.60;77.37
43745;BME280;29359;53.048;8.732;2023-04-04T03:15:23;103177.25;;;-0.63;77.33
43745;BME280;29359;53.048;8.732;2023-04-04T03:17:26;103175.47;;;-0.64;77.31
43745;BME280;29359;53.048;8.732;2023-04-04T03:19:28;103172.81;;;-0.66;77.36
43745;BME280;29359;53.048;8.732;2023-04-04T03:21:29;103170.94;;;-0.68;77.21
43745;BME280;29359;53.048;8.732;2023-04-04T03:23:31;103169.88;;;-0.72;77.51
43745;BME280;29359;53.048;8.732;2023-04-04T03:25:32;103170.75;;;-0.71;77.65
43745;BME280;29359;53.048;8.732;2023-04-04T03:27:34;103168.00;;;-0.74;77.53
43745;BME280;29359;53.048;8.732;2023-04-04T03:29:36;103166.94;;;-0.78;77.28
43745;BME280;29359;53.048;8.732;2023-04-04T03:31:37;103167.84;;;-0.77;77.44
43745;BME280;29359;53.048;8.732;2023-04-04T03:33:39;103165.31;;;-0.76;77.65
43745;BME280;29359;53.048;8.732;2023-04-04T03:35:42;103160.22;;;-0.74;77.42
43745;BME280;29359;53.048;8.732;2023-04-04T03:37:44;103159.25;;;-0.76;77.23
43745;BME280;29359;53.048;8.732;2023-04-04T03:39:46;103158.44;;;-0.75;77.20
43745;BME280;29359;53.048;8.732;2023-04-04T03:41:48;103164.53;;;-0.75;77.30
43745;BME280;29359;53.048;8.732;2023-04-04T03:43:49;103156.75;;;-0.75;77.15
43745;BME280;29359;53.048;8.732;2023-04-04T03:45:51;103154.16;;;-0.75;77.00
43745;BME280;29359;53.048;8.732;2023-04-04T03:47:52;103155.84;;;-0.75;77.19
43745;BME280;29359;53.048;8.732;2023-04-04T03:49:54;103153.09;;;-0.78;76.87
43745;BME280;29359;53.048;8.732;2023-04-04T03:51:56;103154.78;;;-0.79;76.85
43745;BME280;29359;53.048;8.732;2023-04-04T03:53:58;103161.59;;;-0.81;76.98
43745;BME280;29359;53.048;8.732;2023-04-04T03:55:59;103153.72;;;-0.82;77.11
43745;BME280;29359;53.048;8.732;2023-04-04T03:58:01;103154.53;;;-0.83;77.19
43745;BME280;29359;53.048;8.732;2023-04-04T04:00:03;103157.03;;;-0.85;77.31
43745;BME280;29359;53.048;8.732;2023-04-04T04:02:05;103153.44;;;-0.87;77.04
43745;BME280;29359;53.048;8.732;2023-04-04T04:04:07;103149.19;;;-0.86;77.07
43745;BME280;29359;53.048;8.732;2023-04-04T04:06:08;103157.72;;;-0.87;77.12
43745;BME280;29359;53.048;8.732;2023-04-04T04:08:10;103155.94;;;-0.88;77.03
43745;BME280;29359;53.048;8.732;2023-04-04T04:10:11;103154.16;;;-0.89;77.18
43745;BME280;29359;53.048;8.732;2023-04-04T04:12:14;103158.47;;;-0.90;76.98
43745;BME280;29359;53.048;8.732;2023-04-04T04:14:16;103148.97;;;-0.89;77.02
43745;BME280;29359;53.048;8.732;2023-04-04T04:16:18;103152.38;;;-0.90;76.90
43745;BME280;29359;53.048;8.732;2023-04-04T04:18:19;103147.19;;;-0.90;76.95
43745;BME280;29359;53.048;8.732;2023-04-04T04:20:21;103153.28;;;-0.90;76.89
43745;BME280;29359;53.048;8.732;2023-04-04T04:22:23;103160.25;;;-0.89;76.87
43745;BME280;29359;53.048;8.732;2023-04-04T04:24:24;103159.34;;;-0.89;76.83
43745;BME280;29359;53.048;8.732;2023-04-04T04:26:26;103158.53;;;-0.88;76.66
43745;BME280;29359;53.048;8.732;2023-04-04T04:28:27;103156.03;;;-0.87;76.59
43745;BME280;29359;53.048;8.732;2023-04-04T04:30:34;103148.38;;;-0.85;76.58
43745;BME280;29359;53.048;8.732;2023-04-04T04:32:36;103148.38;;;-0.85;76.22
43745;BME280;29359;53.048;8.732;2023-04-04T04:34:37;103141.41;;;-0.86;76.31
43745;BME280;29359;53.048;8.732;2023-04-04T04:36:39;103145.78;;;-0.85;76.52
43745;BME280;29359;53.048;8.732;2023-04-04T04:38:41;103138.81;;;-0.86;76.17
43745;BME280;29359;53.048;8.732;2023-04-04T04:40:43;103134.59;;;-0.84;76.24
43745;BME280;29359;53.048;8.732;2023-04-04T04:42:45;103143.28;;;-0.84;76.28
43745;BME280;29359;53.048;8.732;2023-04-04T04:44:46;103150.16;;;-0.84;76.27
43745;BME280;29359;53.048;8.732;2023-04-04T04:46:48;103147.56;;;-0.84;76.26
43745;BME280;29359;53.048;8.732;2023-04-04T04:48:49;103150.16;;;-0.84;76.18
43745;BME280;29359;53.048;8.732;2023-04-04T04:50:51;103155.34;;;-0.84;76.10
43745;BME280;29359;53.048;8.732;2023-04-04T04:52:52;103160.53;;;-0.84;75.96
43745;BME280;29359;53.048;8.732;2023-04-04T04:54:54;103156.16;;;-0.85;75.88
43745;BME280;29359;53.048;8.732;2023-04-04T04:56:56;103155.94;;;-0.88;76.12
43745;BME280;29359;53.048;8.732;2023-04-04T04:58:57;103159.34;;;-0.89;76.13
43745;BME280;29359;53.048;8.732;2023-04-04T05:00:59;103160.25;;;-0.89;76.01
43745;BME280;29359;53.048;8.732;2023-04-04T05:03:01;103155.06;;;-0.89;75.97
43745;BME280;29359;53.048;8.732;2023-04-04T05:05:03;103155.94;;;-0.88;76.26
43745;BME280;29359;53.048;8.732;2023-04-04T05:07:05;103161.94;;;-0.89;75.96
43745;BME280;29359;53.048;8.732;2023-04-04T05:09:08;103163.81;;;-0.87;75.76
43745;BME280;29359;53.048;8.732;2023-04-04T05:11:10;103164.53;;;-0.89;75.62
43745;BME280;29359;53.048;8.732;2023-04-04T05:13:11;103167.94;;;-0.90;75.77
43745;BME280;29359;53.048;8.732;2023-04-04T05:15:14;103173.13;;;-0.90;75.91
43745;BME280;29359;53.048;8.732;2023-04-04T05:17:15;103169.63;;;-0.91;75.84
43745;BME280;29359;53.048;8.732;2023-04-04T05:19:17;103178.31;;;-0.90;75.75
43745;BME280;29359;53.048;8.732;2023-04-04T05:21:18;103176.53;;;-0.91;75.96
43745;BME280;29359;53.048;8.732;2023-04-04T05:23:20;103180.91;;;-0.90;75.91
43745;BME280;29359;53.048;8.732;2023-04-04T05:25:22;103174.91;;;-0.89;75.69
43745;BME280;29359;53.048;8.732;2023-04-04T05:27:24;103174.91;;;-0.89;75.67
43745;BME280;29359;53.048;8.732;2023-04-04T05:29:26;103183.66;;;-0.87;75.55
43745;BME280;29359;53.048;8.732;2023-04-04T05:31:28;103186.25;;;-0.87;75.51
43745;BME280;29359;53.048;8.732;2023-04-04T05:33:29;103184.69;;;-0.85;75.66
43745;BME280;29359;53.048;8.732;2023-04-04T05:35:31;103179.66;;;-0.82;75.70
43745;BME280;29359;53.048;8.732;2023-04-04T05:37:32;103190.19;;;-0.79;75.37
43745;BME280;29359;53.048;8.732;2023-04-04T05:39:35;103189.41;;;-0.78;75.34
43745;BME280;29359;53.048;8.732;2023-04-04T05:41:38;103184.38;;;-0.75;75.53
43745;BME280;29359;53.048;8.732;2023-04-04T05:43:39;103186.31;;;-0.71;75.36
43745;BME280;29359;53.048;8.732;2023-04-04T05:45:41;103183.09;;;-0.67;75.25
43745;BME280;29359;53.048;8.732;2023-04-04T05:47:43;103187.72;;;-0.61;75.39
43745;BME280;29359;53.048;8.732;2023-04-04T05:49:45;103192.44;;;-0.54;75.17
43745;BME280;29359;53.048;8.732;2023-04-04T05:51:46;103195.38;;;-0.48;75.21
43745;BME280;29359;53.048;8.732;2023-04-04T05:53:48;103192.25;;;-0.43;75.52
43745;BME280;29359;53.048;8.732;2023-04-04T05:55:52;103187.38;;;-0.37;75.41
43745;BME280;29359;53.048;8.732;2023-04-04T05:57:54;103187.88;;;-0.27;75.91
43745;BME280;29359;53.048;8.732;2023-04-04T05:59:57;103187.38;;;-0.20;76.01
43745;BME280;29359;53.048;8.732;2023-04-04T06:01:58;103186.06;;;-0.12;76.09
43745;BME280;29359;53.048;8.732;2023-04-04T06:04:00;103193.38;;;-0.05;75.67
43745;BME280;29359;53.048;8.732;2023-04-04T06:06:02;103191.13;;;0.01;75.50
43745;BME280;29359;53.048;8.732;2023-04-04T06:08:04;103187.16;;;0.08;74.66
43745;BME280;29359;53.048;8.732;2023-04-04T06:10:07;103192.66;;;0.14;74.82
43745;BME280;29359;53.048;8.732;2023-04-04T06:12:09;103183.41;;;0.19;74.44
43745;BME280;29359;53.048;8.732;2023-04-04T06:14:10;103185.41;;;0.24;74.05
43745;BME280;29359;53.048;8.732;2023-04-04T06:16:15;103189.97;;;0.28;73.96
43745;BME280;29359;53.048;8.732;2023-04-04T06:18:17;103189.38;;;0.34;74.38
43745;BME280;29359;53.048;8.732;2023-04-04T06:20:18;103183.53;;;0.38;74.23
43745;BME280;29359;53.048;8.732;2023-04-04T06:22:22;103184.56;;;0.42;73.50
43745;BME280;29359;53.048;8.732;2023-04-04T06:24:24;103181.97;;;0.42;72.53
43745;BME280;29359;53.048;8.732;2023-04-04T06:26:25;103185.66;;;0.45;72.11
43745;BME280;29359;53.048;8.732;2023-04-04T06:28:27;103191.00;;;0.48;72.25
43745;BME280;29359;53.048;8.732;2023-04-04T06:30:29;103191.06;;;0.50;72.34
43745;BME280;29359;53.048;8.732;2023-04-04T06:32:30;103184.53;;;0.58;72.41
43745;BME280;29359;53.048;8.732;2023-04-04T06:34:32;103188.28;;;0.63;71.95
43745;BME280;29359;53.048;8.732;2023-04-04T06:36:34;103196.13;;;0.65;71.55
43745;BME280;29359;53.048;8.732;2023-04-04T06:38:35;103190.44;;;0.72;72.12
43745;BME280;29359;53.048;8.732;2023-04-04T06:40:37;103195.19;;;0.80;71.60
43745;BME280;29359;53.048;8.732;2023-04-04T06:42:47;103193.81;;;0.87;71.38
43745;BME280;29359;53.048;8.732;2023-04-04T06:44:49;103189.81;;;0.93;71.30
43745;BME280;29359;53.048;8.732;2023-04-04T06:46:51;103195.97;;;0.96;70.87
43745;BME280;29359;53.048;8.732;2023-04-04T06:48:53;103196.84;;;0.96;71.06
43745;BME280;29359;53.048;8.732;2023-04-04T06:50:55;103194.56;;;1.02;71.28
43745;BME280;29359;53.048;8.732;2023-04-04T06:52:56;103192.16;;;1.07;71.14
43745;BME280;29359;53.048;8.732;2023-04-04T06:54:58;103192.25;;;1.08;71.31
43745;BME280;29359;53.048;8.732;2023-04-04T06:56:59;103192.31;;;1.10;71.44
43745;BME280;29359;53.048;8.732;2023-04-04T06:59:01;103195.22;;;1.16;71.13
43745;BME280;29359;53.048;8.732;2023-04-04T07:01:03;103189.34;;;1.20;70.88
43745;BME280;29359;53.048;8.732;2023-04-04T07:03:05;103201.66;;;1.24;70.76
43745;BME280;29359;53.048;8.732;2023-04-04T07:05:07;103200.09;;;1.27;71.34
43745;BME280;29359;53.048;8.732;2023-04-04T07:07:08;103195.06;;;1.31;70.03
43745;BME280;29359;53.048;8.732;2023-04-04T07:09:10;103195.22;;;1.34;69.60
43745;BME280;29359;53.048;8.732;2023-04-04T07:11:26;103193.72;;;1.39;69.14
43745;BME280;29359;53.048;8.732;2023-04-04T07:13:29;103191.25;;;1.42;68.72
43745;BME280;29359;53.048;8.732;2023-04-04T07:15:30;103183.59;;;1.45;68.88
43745;BME280;29359;53.048;8.732;2023-04-04T07:17:36;103189.91;;;1.50;69.67
43745;BME280;29359;53.048;8.732;2023-04-04T07:19:38;103187.59;;;1.56;69.68
43745;BME280;29359;53.048;8.732;2023-04-04T07:21:39;103184.38;;;1.62;69.06
43745;BME280;29359;53.048;8.732;2023-04-04T07:23:41;103184.66;;;1.68;68.92
43745;BME280;29359;53.048;8.732;2023-04-04T07:25:42;103188.34;;;1.73;69.42
43745;BME280;29359;53.048;8.732;2023-04-04T07:27:44;103187.69;;;1.77;68.72
43745;BME280;29359;53.048;8.732;2023-04-04T07:29:46;103180.97;;;1.82;67.95
43745;BME280;29359;53.048;8.732;2023-04-04T07:31:48;103187.41;;;1.90;67.63
43745;BME280;29359;53.048;8.732;2023-04-04T07:33:50;103184.94;;;1.93;68.16
43745;BME280;29359;53.048;8.732;2023-04-04T07:35:54;103190.44;;;1.99;67.60
43745;BME280;29359;53.048;8.732;2023-04-04T07:37:55;103184.47;;;2.02;67.84
43745;BME280;29359;53.048;8.732;2023-04-04T07:39:58;103182.88;;;2.05;67.85
43745;BME280;29359;53.048;8.732;2023-04-04T07:41:59;103183.16;;;2.11;68.18
43745;BME280;29359;53.048;8.732;2023-04-04T07:44:01;103180.69;;;2.14;66.90
43745;BME280;29359;53.048;8.732;2023-04-04T07:46:03;103187.84;;;2.18;67.08
43745;BME280;29359;53.048;8.732;2023-04-04T07:48:05;103183.34;;;2.16;68.01
43745;BME280;29359;53.048;8.732;2023-04-04T07:50:06;103180.22;;;2.23;67.98
43745;BME280;29359;53.048;8.732;2023-04-04T07:52:08;103185.63;;;2.28;68.05
43745;BME280;29359;53.048;8.732;2023-04-04T07:54:10;103183.97;;;2.30;67.96
43745;BME280;29359;53.048;8.732;2023-04-04T07:56:11;103184.25;;;2.36;67.78
43745;BME280;29359;53.048;8.732;2023-04-04T07:58:13;103186.28;;;2.43;68.02
43745;BME280;29359;53.048;8.732;2023-04-04T08:00:14;103183.88;;;2.47;67.70
43745;BME280;29359;53.048;8.732;2023-04-04T08:02:17;103180.63;;;2.53;67.71
43745;BME280;29359;53.048;8.732;2023-04-04T08:04:19;103173.94;;;2.60;67.57
43745;BME280;29359;53.048;8.732;2023-04-04T08:06:21;103168.13;;;2.65;66.75
43745;BME280;29359;53.048;8.732;2023-04-04T08:08:22;103170.09;;;2.71;66.45
43745;BME280;29359;53.048;8.732;2023-04-04T08:10:24;103173.66;;;2.73;66.29
43745;BME280;29359;53.048;8.732;2023-04-04T08:12:26;103165.13;;;2.77;66.74
43745;BME280;29359;53.048;8.732;2023-04-04T08:14:28;103175.75;;;2.81;66.40
43745;BME280;29359;53.048;8.732;2023-04-04T08:16:29;103169.81;;;2.86;66.47
43745;BME280;29359;53.048;8.732;2023-04-04T08:18:31;103176.13;;;2.91;65.93
43745;BME280;29359;53.048;8.732;2023-04-04T08:20:33;103185.03;;;2.96;65.45
43745;BME280;29359;53.048;8.732;2023-04-04T08:22:35;103174.63;;;2.97;66.07
43745;BME280;29359;53.048;8.732;2023-04-04T08:24:37;103180.81;;;2.99;66.51
43745;BME280;29359;53.048;8.732;2023-04-04T08:26:38;103174.16;;;3.06;66.17
43745;BME280;29359;53.048;8.732;2023-04-04T08:28:40;103172.63;;;3.11;65.55
43745;BME280;29359;53.048;8.732;2023-04-04T08:30:41;103170.19;;;3.15;65.79
43745;BME280;29359;53.048;8.732;2023-04-04T08:32:43;103170.13;;;3.14;66.35
43745;BME280;29359;53.048;8.732;2023-04-04T08:34:46;103165.03;;;3.17;66.78
43745;BME280;29359;53.048;8.732;2023-04-04T08:36:48;103165.31;;;3.25;66.05
43745;BME280;29359;53.048;8.732;2023-04-04T08:38:49;103162.16;;;3.33;64.96
43745;BME280;29359;53.048;8.732;2023-04-04T08:40:51;103161.63;;;3.42;64.68
43745;BME280;29359;53.048;8.732;2023-04-04T08:42:53;103160.22;;;3.50;63.98
43745;BME280;29359;53.048;8.732;2023-04-04T08:44:56;103153.50;;;3.57;64.24
43745;BME280;29359;53.048;8.732;2023-04-04T08:47:02;103157.31;;;3.65;64.57
43745;BME280;29359;53.048;8.732;2023-04-04T08:49:05;103157.47;;;3.69;63.57
43745;BME280;29359;53.048;8.732;2023-04-04T08:51:09;103151.25;;;3.66;64.75
43745;BME280;29359;53.048;8.732;2023-04-04T08:53:12;103153.91;;;3.67;64.66
43745;BME280;29359;53.048;8.732;2023-04-04T08:55:15;103153.06;;;3.68;65.12
43745;BME280;29359;53.048;8.732;2023-04-04T08:57:16;103149.56;;;3.68;65.50
43745;BME280;29359;53.048;8.732;2023-04-04T08:59:18;103148.69;;;3.67;66.52
43745;BME280;29359;53.048;8.732;2023-04-04T09:01:21;103155.97;;;3.76;65.07
43745;BME280;29359;53.048;8.732;2023-04-04T09:03:25;103150.13;;;3.83;63.43
43745;BME280;29359;53.048;8.732;2023-04-04T09:05:27;103152.97;;;3.89;63.48
43745;BME280;29359;53.048;8.732;2023-04-04T09:07:30;103152.38;;;3.96;63.52
43745;BME280;29359;53.048;8.732;2023-04-04T09:09:32;103153.59;;;4.06;62.69
43745;BME280;29359;53.048;8.732;2023-04-04T09:11:34;103144.44;;;4.19;61.69
43745;BME280;29359;53.048;8.732;2023-04-04T09:13:37;103140.53;;;4.31;61.16
43745;BME280;29359;53.048;8.732;2023-04-04T09:15:45;103141.47;;;4.33;63.00
43745;BME280;29359;53.048;8.732;2023-04-04T09:17:47;103140.59;;;4.33;64.30
43745;BME280;29359;53.048;8.732;2023-04-04T09:19:49;103138.09;;;4.36;64.77
43745;BME280;29359;53.048;8.732;2023-04-04T09:21:51;103139.78;;;4.34;65.18
43745;BME280;29359;53.048;8.732;2023-04-04T09:24:00;103140.91;;;4.42;64.46
43745;BME280;29359;53.048;8.732;2023-04-04T09:26:02;103137.78;;;4.52;63.01
43745;BME280;29359;53.048;8.732;2023-04-04T09:28:05;103131.91;;;4.59;62.89
43745;BME280;29359;53.048;8.732;2023-04-04T09:30:07;103135.75;;;4.70;62.94
43745;BME280;29359;53.048;8.732;2023-04-04T09:32:14;103136.09;;;4.80;61.62
43745;BME280;29359;53.048;8.732;2023-04-04T09:34:17;103135.34;;;4.84;59.43
43745;BME280;29359;53.048;8.732;2023-04-04T09:36:19;103136.28;;;4.86;59.83
43745;BME280;29359;53.048;8.732;2023-04-04T09:38:23;103127.91;;;4.97;56.50
43745;BME280;29359;53.048;8.732;2023-04-04T09:40:27;103123.72;;;5.02;61.09
43745;BME280;29359;53.048;8.732;2023-04-04T09:42:31;103131.53;;;5.01;63.28
43745;BME280;29359;53.048;8.732;2023-04-04T09:44:32;103128.72;;;4.95;64.24
43745;BME280;29359;53.048;8.732;2023-04-04T09:46:37;103134.88;;;4.97;64.47
43745;BME280;29359;53.048;8.732;2023-04-04T09:48:47;103128.75;;;4.96;64.73
43745;BME280;29359;53.048;8.732;2023-04-04T09:50:51;103128.91;;;5.01;63.65
43745;BME280;29359;53.048;8.732;2023-04-04T09:52:55;103122.97;;;5.07;55.98
43745;BME280;29359;53.048;8.732;2023-04-04T09:54:58;103124.03;;;5.13;60.09
43745;BME280;29359;53.048;8.732;2023-04-04T09:57:00;103122.25;;;5.12;63.74
43745;BME280;29359;53.048;8.732;2023-04-04T09:59:01;103121.78;;;5.24;64.00
43745;BME280;29359;53.048;8.732;2023-04-04T10:01:08;103117.56;;;5.29;64.04
43745;BME280;29359;53.048;8.732;2023-04-04T10:03:12;103123.13;;;5.40;63.13
43745;BME280;29359;53.048;8.732;2023-04-04T10:05:15;103115.56;;;5.50;63.73
43745;BME280;29359;53.048;8.732;2023-04-04T10:07:17;103123.94;;;5.67;61.86
43745;BME280;29359;53.048;8.732;2023-04-04T10:09:18;103119.97;;;5.81;60.61
43745;BME280;29359;53.048;8.732;2023-04-04T10:11:31;103124.59;;;5.90;62.02
43745;BME280;29359;53.048;8.732;2023-04-04T10:13:34;103128.31;;;5.98;53.75
43745;BME280;29359;53.048;8.732;2023-04-04T10:15:37;103122.19;;;5.97;50.75
43745;BME280;29359;53.048;8.732;2023-04-04T10:17:40;103116.38;;;6.08;49.55
43745;BME280;29359;53.048;8.732;2023-04-04T10:19:42;103119.94;;;6.10;46.29
43745;BME280;29359;53.048;8.732;2023-04-04T10:21:45;103118.19;;;6.10;45.44
43745;BME280;29359;53.048;8.732;2023-04-04T10:23:48;103118.28;;;6.13;57.06
43745;BME280;29359;53.048;8.732;2023-04-04T10:25:50;103122.88;;;6.22;53.76
43745;BME280;29359;53.048;8.732;2023-04-04T10:27:52;103122.38;;;6.37;56.03
43745;BME280;29359;53.048;8.732;2023-04-04T10:29:54;103113.97;;;6.50;57.40
43745;BME280;29359;53.048;8.732;2023-04-04T10:32:04;103122.94;;;6.58;60.27
43745;BME280;29359;53.048;8.732;2023-04-04T10:34:48;103118.75;;;6.66;54.03
43745;BME280;29359;53.048;8.732;2023-04-04T10:36:53;103107.81;;;6.84;55.41
43745;BME280;29359;53.048;8.732;2023-04-04T10:39:08;103102.81;;;6.95;48.55
43745;BME280;29359;53.048;8.732;2023-04-04T10:41:13;103092.66;;;7.10;45.94
43745;BME280;29359;53.048;8.732;2023-04-04T10:43:19;103091.78;;;7.09;45.22
43745;BME280;29359;53.048;8.732;2023-04-04T10:45:25;103090.16;;;7.16;44.22